sensor_id;sensor_type;location;lat;lon;timestamp;pressure;altitude;pressure_sealevel;temperature;humidity
6096;BME280;25081;42.698;23.298;2023-07-22T00:01:05;95149.77;;;24.20;55.16
6096;BME280;25081;42.698;23.298;2023-07-22T00:03:16;95142.61;;;24.24;55.10
6096;BME280;25081;42.698;23.298;2023-07-22T00:05:26;95148.55;;;24.26;55.27
6096;BME280;25081;42.698;23.298;2023-07-22T00:07:37;95155.92;;;24.25;55.39
6096;BME280;25081;42.698;23.298;2023-07-22T00:09:47;95160.67;;;24.20;55.44
6096;BME280;25081;42.698;23.298;2023-07-22T00:11:58;95166.67;;;24.19;55.68
6096;BME280;25081;42.698;23.298;2023-07-22T00:14:09;95164.33;;;24.15;55.96
6096;BME280;25081;42.698;23.298;2023-07-22T00:16:19;95163.56;;;24.12;56.08
6096;BME280;25081;42.698;23.298;2023-07-22T00:18:30;95167.92;;;24.13;56.08
6096;BME280;25081;42.698;23.298;2023-07-22T00:20:40;95166.59;;;24.11;56.51
6096;BME280;25081;42.698;23.298;2023-07-22T00:22:51;95162.39;;;24.05;56.79
6096;BME280;25081;42.698;23.298;2023-07-22T00:25:01;95164.80;;;24.06;56.60
6096;BME280;25081;42.698;23.298;2023-07-22T00:27:12;95160.22;;;24.04;56.59
6096;BME280;25081;42.698;23.298;2023-07-22T00:29:22;95169.13;;;24.07;56.73
6096;BME280;25081;42.698;23.298;2023-07-22T00:31:33;95167.99;;;23.97;57.20
6096;BME280;25081;42.698;23.298;2023-07-22T00:33:43;95168.15;;;23.89;57.50
6096;BME280;25081;42.698;23.298;2023-07-22T00:35:54;95177.03;;;23.81;57.60
6096;BME280;25081;42.698;23.298;2023-07-22T00:38:04;95166.60;;;23.86;57.61
6096;BME280;25081;42.698;23.298;2023-07-22T00:40:15;95164.74;;;23.84;57.78
6096;BME280;25081;42.698;23.298;2023-07-22T00:42:26;95160.56;;;23.75;57.74
6096;BME280;25081;42.698;23.298;2023-07-22T00:44:37;95162.67;;;23.78;57.86
6096;BME280;25081;42.698;23.298;2023-07-22T00:46:47;95174.20;;;23.73;57.98
6096;BME280;25081;42.698;23.298;2023-07-22T00:48:58;95180.67;;;23.77;58.03
6096;BME280;25081;42.698;23.298;2023-07-22T00:51:08;95180.06;;;23.80;58.11
6096;BME280;25081;42.698;23.298;2023-07-22T00:53:19;95182.84;;;23.77;58.26
6096;BME280;25081;42.698;23.298;2023-07-22T00:55:29;95190.35;;;23.69;58.54
6096;BME280;25081;42.698;23.298;2023-07-22T00:57:40;95191.66;;;23.72;58.44
6096;BME280;25081;42.698;23.298;2023-07-22T00:59:50;95188.69;;;23.70;58.53
6096;BME280;25081;42.698;23.298;2023-07-22T01:02:01;95176.42;;;23.57;58.71
6096;BME280;25081;42.698;23.298;2023-07-22T01:04:13;95170.64;;;23.45;59.20
6096;BME280;25081;42.698;23.298;2023-07-22T01:06:22;95171.84;;;23.55;59.04
6096;BME280;25081;42.698;23.298;2023-07-22T01:08:33;95169.14;;;23.52;59.14
6096;BME280;25081;42.698;23.298;2023-07-22T01:10:44;95169.84;;;23.60;59.09
6096;BME280;25081;42.698;23.298;2023-07-22T01:12:55;95163.06;;;23.58;59.21
6096;BME280;25081;42.698;23.298;2023-07-22T01:15:07;95156.81;;;23.57;59.24
6096;BME280;25081;42.698;23.298;2023-07-22T01:17:17;95162.34;;;23.52;59.60
6096;BME280;25081;42.698;23.298;2023-07-22T01:19:28;95164.13;;;23.46;60.00
6096;BME280;25081;42.698;23.298;2023-07-22T01:21:39;95163.11;;;23.55;59.65
6096;BME280;25081;42.698;23.298;2023-07-22T01:23:49;95168.59;;;23.53;59.53
6096;BME280;25081;42.698;23.298;2023-07-22T01:26:00;95162.56;;;23.56;59.55
6096;BME280;25081;42.698;23.298;2023-07-22T01:28:11;95162.89;;;23.52;59.71
6096;BME280;25081;42.698;23.298;2023-07-22T01:30:22;95152.68;;;23.46;59.71
6096;BME280;25081;42.698;23.298;2023-07-22T01:32:32;95151.59;;;23.45;59.77
6096;BME280;25081;42.698;23.298;2023-07-22T01:34:43;95153.98;;;23.49;59.97
6096;BME280;25081;42.698;23.298;2023-07-22T01:36:54;95156.52;;;23.45;60.08
6096;BME280;25081;42.698;23.298;2023-07-22T01:39:04;95157.66;;;23.41;60.14
6096;BME280;25081;42.698;23.298;2023-07-22T01:41:16;95152.60;;;23.35;60.42
6096;BME280;25081;42.698;23.298;2023-07-22T01:43:26;95145.91;;;23.30;60.74
6096;BME280;25081;42.698;23.298;2023-07-22T01:45:37;95151.69;;;23.26;61.02
6096;BME280;25081;42.698;23.298;2023-07-22T01:47:48;95151.11;;;23.29;61.06
6096;BME280;25081;42.698;23.298;2023-07-22T01:49:58;95143.88;;;23.35;60.88
6096;BME280;25081;42.698;23.298;2023-07-22T01:52:09;95136.33;;;23.32;60.83
6096;BME280;25081;42.698;23.298;2023-07-22T01:54:20;95138.72;;;23.36;60.73
6096;BME280;25081;42.698;23.298;2023-07-22T01:56:30;95139.97;;;23.28;60.97
6096;BME280;25081;42.698;23.298;2023-07-22T01:58:41;95133.75;;;23.25;61.22
6096;BME280;25081;42.698;23.298;2023-07-22T02:00:51;95137.25;;;23.28;61.24
6096;BME280;25081;42.698;23.298;2023-07-22T02:03:02;95129.92;;;23.26;61.27
6096;BME280;25081;42.698;23.298;2023-07-22T02:05:13;95137.28;;;23.25;60.99
6096;BME280;25081;42.698;23.298;2023-07-22T02:07:23;95137.33;;;23.23;61.34
6096;BME280;25081;42.698;23.298;2023-07-22T02:09:34;95150.13;;;23.22;61.33
6096;BME280;25081;42.698;23.298;2023-07-22T02:11:44;95143.27;;;23.11;62.11
6096;BME280;25081;42.698;23.298;2023-07-22T02:13:55;95140.86;;;23.09;62.07
6096;BME280;25081;42.698;23.298;2023-07-22T02:16:06;95139.77;;;22.94;62.49
6096;BME280;25081;42.698;23.298;2023-07-22T02:18:16;95142.10;;;23.01;62.38
6096;BME280;25081;42.698;23.298;2023-07-22T02:20:27;95136.16;;;22.99;62.33
6096;BME280;25081;42.698;23.298;2023-07-22T02:22:37;95142.41;;;22.99;62.63
6096;BME280;25081;42.698;23.298;2023-07-22T02:24:48;95144.14;;;22.93;62.78
6096;BME280;25081;42.698;23.298;2023-07-22T02:26:59;95145.56;;;22.90;63.12
6096;BME280;25081;42.698;23.298;2023-07-22T02:29:09;95152.45;;;22.82;63.48
6096;BME280;25081;42.698;23.298;2023-07-22T02:31:20;95156.95;;;22.73;63.68
6096;BME280;25081;42.698;23.298;2023-07-22T02:33:32;95159.28;;;22.64;64.25
6096;BME280;25081;42.698;23.298;2023-07-22T02:35:42;95157.47;;;22.59;64.35
6096;BME280;25081;42.698;23.298;2023-07-22T02:37:53;95161.80;;;22.60;64.35
6096;BME280;25081;42.698;23.298;2023-07-22T02:40:05;95158.94;;;22.68;63.97
6096;BME280;25081;42.698;23.298;2023-07-22T02:42:16;95162.44;;;22.71;63.29
6096;BME280;25081;42.698;23.298;2023-07-22T02:44:26;95160.47;;;22.74;63.00
6096;BME280;25081;42.698;23.298;2023-07-22T02:46:37;95156.82;;;22.65;63.22
6096;BME280;25081;42.698;23.298;2023-07-22T02:48:47;95153.67;;;22.57;63.75
6096;BME280;25081;42.698;23.298;2023-07-22T02:51:04;95158.70;;;22.50;64.11
6096;BME280;25081;42.698;23.298;2023-07-22T02:53:14;95154.31;;;22.52;64.08
6096;BME280;25081;42.698;23.298;2023-07-22T02:55:25;95162.68;;;22.39;64.49
6096;BME280;25081;42.698;23.298;2023-07-22T02:57:36;95162.70;;;22.37;64.73
6096;BME280;25081;42.698;23.298;2023-07-22T02:59:46;95165.66;;;22.38;64.57
6096;BME280;25081;42.698;23.298;2023-07-22T03:01:56;95168.47;;;22.33;64.72
6096;BME280;25081;42.698;23.298;2023-07-22T03:04:07;95170.95;;;22.29;64.97
6096;BME280;25081;42.698;23.298;2023-07-22T03:06:18;95164.20;;;22.26;64.98
6096;BME280;25081;42.698;23.298;2023-07-22T03:08:29;95165.56;;;22.26;64.87
6096;BME280;25081;42.698;23.298;2023-07-22T03:10:39;95162.14;;;22.21;65.02
6096;BME280;25081;42.698;23.298;2023-07-22T03:12:50;95168.22;;;22.13;65.84
6096;BME280;25081;42.698;23.298;2023-07-22T03:15:00;95165.00;;;22.11;65.64
6096;BME280;25081;42.698;23.298;2023-07-22T03:17:11;95159.83;;;22.09;65.48
6096;BME280;25081;42.698;23.298;2023-07-22T03:19:22;95162.83;;;22.10;65.56
6096;BME280;25081;42.698;23.298;2023-07-22T03:21:32;95171.23;;;22.11;65.42
6096;BME280;25081;42.698;23.298;2023-07-22T03:23:42;95169.38;;;22.25;65.14
6096;BME280;25081;42.698;23.298;2023-07-22T03:25:53;95164.84;;;22.21;65.35
6096;BME280;25081;42.698;23.298;2023-07-22T03:28:04;95171.66;;;22.18;65.49
6096;BME280;25081;42.698;23.298;2023-07-22T03:30:15;95173.50;;;22.23;65.52
6096;BME280;25081;42.698;23.298;2023-07-22T03:32:25;95180.00;;;22.24;65.21
6096;BME280;25081;42.698;23.298;2023-07-22T03:34:36;95184.52;;;22.32;64.83
6096;BME280;25081;42.698;23.298;2023-07-22T03:36:46;95192.16;;;22.30;65.00
6096;BME280;25081;42.698;23.298;2023-07-22T03:38:57;95193.78;;;22.47;64.53
6096;BME280;25081;42.698;23.298;2023-07-22T03:41:08;95186.58;;;22.56;64.07
6096;BME280;25081;42.698;23.298;2023-07-22T03:43:18;95193.36;;;22.59;64.15
6096;BME280;25081;42.698;23.298;2023-07-22T03:45:29;95204.83;;;22.72;63.87
6096;BME280;25081;42.698;23.298;2023-07-22T03:47:40;95198.33;;;22.89;63.07
6096;BME280;25081;42.698;23.298;2023-07-22T03:49:50;95194.27;;;23.03;62.74
6096;BME280;25081;42.698;23.298;2023-07-22T03:52:02;95201.63;;;23.02;62.95
6096;BME280;25081;42.698;23.298;2023-07-22T03:54:12;95200.14;;;22.94;62.93
6096;BME280;25081;42.698;23.298;2023-07-22T03:56:23;95203.78;;;23.19;62.55
6096;BME280;25081;42.698;23.298;2023-07-22T03:58:33;95210.72;;;23.41;61.87
6096;BME280;25081;42.698;23.298;2023-07-22T04:00:47;95210.72;;;23.41;61.71
6096;BME280;25081;42.698;23.298;2023-07-22T04:02:54;95215.84;;;23.29;62.18
6096;BME280;25081;42.698;23.298;2023-07-22T04:05:06;95219.25;;;23.21;62.25
6096;BME280;25081;42.698;23.298;2023-07-22T04:07:17;95222.76;;;23.08;62.81
6096;BME280;25081;42.698;23.298;2023-07-22T04:09:29;95223.31;;;23.07;63.13
6096;BME280;25081;42.698;23.298;2023-07-22T04:11:39;95224.62;;;23.26;62.60
6096;BME280;25081;42.698;23.298;2023-07-22T04:13:50;95215.98;;;23.35;62.38
6096;BME280;25081;42.698;23.298;2023-07-22T04:16:00;95211.52;;;23.42;61.88
6096;BME280;25081;42.698;23.298;2023-07-22T04:18:11;95209.19;;;23.35;62.19
6096;BME280;25081;42.698;23.298;2023-07-22T04:20:21;95209.61;;;23.59;61.69
6096;BME280;25081;42.698;23.298;2023-07-22T04:22:32;95215.11;;;23.40;62.00
6096;BME280;25081;42.698;23.298;2023-07-22T04:24:43;95210.83;;;23.50;61.91
6096;BME280;25081;42.698;23.298;2023-07-22T04:26:53;95214.41;;;23.48;62.01
6096;BME280;25081;42.698;23.298;2023-07-22T04:29:04;95221.47;;;23.65;61.37
6096;BME280;25081;42.698;23.298;2023-07-22T04:31:14;95216.48;;;23.84;61.23
6096;BME280;25081;42.698;23.298;2023-07-22T04:33:25;95222.55;;;23.92;60.98
6096;BME280;25081;42.698;23.298;2023-07-22T04:35:36;95231.19;;;23.83;61.17
6096;BME280;25081;42.698;23.298;2023-07-22T04:37:46;95237.13;;;23.71;61.40
6096;BME280;25081;42.698;23.298;2023-07-22T04:39:56;95235.47;;;23.59;61.95
6096;BME280;25081;42.698;23.298;2023-07-22T04:42:07;95231.20;;;23.96;60.91
6096;BME280;25081;42.698;23.298;2023-07-22T04:44:18;95232.92;;;24.45;59.54
6096;BME280;25081;42.698;23.298;2023-07-22T04:46:29;95227.40;;;25.17;57.68
6096;BME280;25081;42.698;23.298;2023-07-22T04:48:40;95227.14;;;25.27;57.05
6096;BME280;25081;42.698;23.298;2023-07-22T04:50:50;95222.85;;;25.35;56.92
6096;BME280;25081;42.698;23.298;2023-07-22T04:53:01;95224.23;;;25.24;56.81
6096;BME280;25081;42.698;23.298;2023-07-22T04:55:12;95221.22;;;25.76;55.45
6096;BME280;25081;42.698;23.298;2023-07-22T04:57:22;95220.80;;;26.40;53.86
6096;BME280;25081;42.698;23.298;2023-07-22T04:59:33;95222.25;;;27.32;51.26
6096;BME280;25081;42.698;23.298;2023-07-22T05:01:43;95229.04;;;26.83;52.06
6096;BME280;25081;42.698;23.298;2023-07-22T05:03:54;95231.31;;;27.39;51.34
6096;BME280;25081;42.698;23.298;2023-07-22T05:06:05;95235.09;;;28.34;49.08
6096;BME280;25081;42.698;23.298;2023-07-22T05:08:15;95241.38;;;29.06;46.55
6096;BME280;25081;42.698;23.298;2023-07-22T05:10:26;95245.98;;;29.74;45.21
6096;BME280;25081;42.698;23.298;2023-07-22T05:12:36;95240.89;;;29.25;46.35
6096;BME280;25081;42.698;23.298;2023-07-22T05:14:47;95239.36;;;28.94;47.36
6096;BME280;25081;42.698;23.298;2023-07-22T05:16:57;95242.09;;;28.73;47.67
6096;BME280;25081;42.698;23.298;2023-07-22T05:19:08;95234.48;;;29.00;47.07
6096;BME280;25081;42.698;23.298;2023-07-22T05:21:18;95237.80;;;29.32;46.60
6096;BME280;25081;42.698;23.298;2023-07-22T05:23:29;95231.69;;;30.05;44.94
6096;BME280;25081;42.698;23.298;2023-07-22T05:25:39;95233.09;;;31.00;42.51
6096;BME280;25081;42.698;23.298;2023-07-22T05:27:50;95232.36;;;30.63;43.03
6096;BME280;25081;42.698;23.298;2023-07-22T05:30:00;95230.52;;;31.14;42.16
6096;BME280;25081;42.698;23.298;2023-07-22T05:32:11;95240.20;;;31.36;41.57
6096;BME280;25081;42.698;23.298;2023-07-22T05:34:21;95241.98;;;31.28;41.88
6096;BME280;25081;42.698;23.298;2023-07-22T05:36:32;95242.36;;;30.37;43.93
6096;BME280;25081;42.698;23.298;2023-07-22T05:38:42;95243.19;;;31.02;42.67
6096;BME280;25081;42.698;23.298;2023-07-22T05:40:53;95249.00;;;31.13;42.56
6096;BME280;25081;42.698;23.298;2023-07-22T05:43:04;95250.18;;;31.62;41.33
6096;BME280;25081;42.698;23.298;2023-07-22T05:45:15;95247.31;;;32.18;40.29
6096;BME280;25081;42.698;23.298;2023-07-22T05:47:25;95245.31;;;31.15;42.43
6096;BME280;25081;42.698;23.298;2023-07-22T05:49:36;95246.34;;;31.51;42.12
6096;BME280;25081;42.698;23.298;2023-07-22T05:51:46;95242.00;;;31.22;42.64
6096;BME280;25081;42.698;23.298;2023-07-22T05:53:57;95244.09;;;31.62;41.48
6096;BME280;25081;42.698;23.298;2023-07-22T05:56:07;95240.91;;;32.45;39.97
6096;BME280;25081;42.698;23.298;2023-07-22T05:58:18;95236.88;;;30.96;42.22
6096;BME280;25081;42.698;23.298;2023-07-22T06:00:28;95241.56;;;30.37;44.31
6096;BME280;25081;42.698;23.298;2023-07-22T06:02:39;95239.36;;;30.79;43.25
6096;BME280;25081;42.698;23.298;2023-07-22T06:04:50;95244.42;;;30.10;44.69
6096;BME280;25081;42.698;23.298;2023-07-22T06:07:01;95251.73;;;31.25;43.10
6096;BME280;25081;42.698;23.298;2023-07-22T06:09:11;95255.38;;;32.17;40.65
6096;BME280;25081;42.698;23.298;2023-07-22T06:11:22;95260.88;;;33.19;38.43
6096;BME280;25081;42.698;23.298;2023-07-22T06:13:32;95270.42;;;33.12;38.52
6096;BME280;25081;42.698;23.298;2023-07-22T06:15:43;95271.53;;;33.46;37.91
6096;BME280;25081;42.698;23.298;2023-07-22T06:17:53;95265.94;;;34.50;35.54
6096;BME280;25081;42.698;23.298;2023-07-22T06:20:05;95269.02;;;34.71;35.16
6096;BME280;25081;42.698;23.298;2023-07-22T06:22:16;95276.16;;;33.03;38.67
6096;BME280;25081;42.698;23.298;2023-07-22T06:24:26;95271.81;;;33.89;37.54
6096;BME280;25081;42.698;23.298;2023-07-22T06:26:37;95267.33;;;33.42;38.12
6096;BME280;25081;42.698;23.298;2023-07-22T06:28:47;95270.90;;;33.85;37.30
6096;BME280;25081;42.698;23.298;2023-07-22T06:30:58;95276.41;;;33.62;38.03
6096;BME280;25081;42.698;23.298;2023-07-22T06:33:09;95277.16;;;33.49;38.51
6096;BME280;25081;42.698;23.298;2023-07-22T06:35:19;95278.36;;;34.36;37.22
6096;BME280;25081;42.698;23.298;2023-07-22T06:37:29;95275.97;;;35.27;35.13
6096;BME280;25081;42.698;23.298;2023-07-22T06:39:40;95278.64;;;35.04;35.21
6096;BME280;25081;42.698;23.298;2023-07-22T06:41:51;95284.74;;;33.17;38.79
6096;BME280;25081;42.698;23.298;2023-07-22T06:44:01;95286.38;;;33.47;38.24
6096;BME280;25081;42.698;23.298;2023-07-22T06:46:12;95286.52;;;33.64;37.46
6096;BME280;25081;42.698;23.298;2023-07-22T06:48:23;95289.08;;;34.05;37.17
6096;BME280;25081;42.698;23.298;2023-07-22T06:50:33;95281.86;;;34.69;35.78
6096;BME280;25081;42.698;23.298;2023-07-22T06:52:43;95278.23;;;35.48;34.35
6096;BME280;25081;42.698;23.298;2023-07-22T06:54:54;95278.86;;;35.51;33.86
6096;BME280;25081;42.698;23.298;2023-07-22T06:57:06;95274.36;;;34.70;34.78
6096;BME280;25081;42.698;23.298;2023-07-22T06:59:16;95268.02;;;35.73;33.31
6096;BME280;25081;42.698;23.298;2023-07-22T07:01:27;95280.36;;;33.42;36.92
6096;BME280;25081;42.698;23.298;2023-07-22T07:03:37;95269.27;;;33.22;37.91
6096;BME280;25081;42.698;23.298;2023-07-22T07:05:53;95274.67;;;32.01;40.41
6096;BME280;25081;42.698;23.298;2023-07-22T07:08:05;95270.53;;;32.90;39.60
6096;BME280;25081;42.698;23.298;2023-07-22T07:10:15;95265.77;;;34.06;36.88
6096;BME280;25081;42.698;23.298;2023-07-22T07:12:26;95272.08;;;31.71;41.21
6096;BME280;25081;42.698;23.298;2023-07-22T07:14:37;95271.66;;;32.06;41.23
6096;BME280;25081;42.698;23.298;2023-07-22T07:16:47;95255.19;;;33.99;37.24
6096;BME280;25081;42.698;23.298;2023-07-22T07:18:58;95258.39;;;34.37;36.78
6096;BME280;25081;42.698;23.298;2023-07-22T07:21:08;95261.84;;;34.30;36.15
6096;BME280;25081;42.698;23.298;2023-07-22T07:23:19;95256.08;;;35.22;34.52
6096;BME280;25081;42.698;23.298;2023-07-22T07:25:29;95258.55;;;35.94;33.65
6096;BME280;25081;42.698;23.298;2023-07-22T07:27:40;95249.50;;;35.17;34.70
6096;BME280;25081;42.698;23.298;2023-07-22T07:29:51;95253.77;;;35.74;34.09
6096;BME280;25081;42.698;23.298;2023-07-22T07:32:01;95249.89;;;35.02;34.95
6096;BME280;25081;42.698;23.298;2023-07-22T07:34:11;95256.52;;;33.18;38.29
6096;BME280;25081;42.698;23.298;2023-07-22T07:36:22;95254.86;;;34.04;38.10
6096;BME280;25081;42.698;23.298;2023-07-22T07:38:32;95247.66;;;34.22;37.04
6096;BME280;25081;42.698;23.298;2023-07-22T07:40:43;95245.66;;;35.42;34.99
6096;BME280;25081;42.698;23.298;2023-07-22T07:42:53;95242.55;;;35.64;35.28
6096;BME280;25081;42.698;23.298;2023-07-22T07:45:05;95245.19;;;36.51;33.03
6096;BME280;25081;42.698;23.298;2023-07-22T07:47:15;95234.83;;;36.00;33.80
6096;BME280;25081;42.698;23.298;2023-07-22T07:49:26;95233.62;;;35.81;34.12
6096;BME280;25081;42.698;23.298;2023-07-22T07:51:36;95238.98;;;36.24;34.12
6096;BME280;25081;42.698;23.298;2023-07-22T07:53:47;95236.64;;;37.12;32.31
6096;BME280;25081;42.698;23.298;2023-07-22T07:55:57;95234.47;;;36.81;32.79
6096;BME280;25081;42.698;23.298;2023-07-22T07:58:08;95228.53;;;35.19;35.65
6096;BME280;25081;42.698;23.298;2023-07-22T08:00:19;95234.39;;;34.44;36.38
6096;BME280;25081;42.698;23.298;2023-07-22T08:02:30;95231.75;;;34.29;36.75
6096;BME280;25081;42.698;23.298;2023-07-22T08:04:41;95230.27;;;35.65;33.78
6096;BME280;25081;42.698;23.298;2023-07-22T08:06:51;95235.98;;;36.67;32.18
6096;BME280;25081;42.698;23.298;2023-07-22T08:09:02;95235.98;;;36.99;31.68
6096;BME280;25081;42.698;23.298;2023-07-22T08:11:14;95227.82;;;38.08;30.13
6096;BME280;25081;42.698;23.298;2023-07-22T08:13:23;95220.31;;;38.23;30.48
6096;BME280;25081;42.698;23.298;2023-07-22T08:15:34;95219.59;;;39.19;28.64
6096;BME280;25081;42.698;23.298;2023-07-22T08:17:44;95224.24;;;37.93;30.82
6096;BME280;25081;42.698;23.298;2023-07-22T08:19:55;95227.12;;;35.87;33.77
6096;BME280;25081;42.698;23.298;2023-07-22T08:22:06;95226.26;;;36.99;32.26
6096;BME280;25081;42.698;23.298;2023-07-22T08:24:17;95225.67;;;36.40;33.33
6096;BME280;25081;42.698;23.298;2023-07-22T08:26:27;95227.70;;;36.27;33.47
6096;BME280;25081;42.698;23.298;2023-07-22T08:28:38;95221.33;;;36.47;32.97
6096;BME280;25081;42.698;23.298;2023-07-22T08:30:49;95222.69;;;35.11;34.84
6096;BME280;25081;42.698;23.298;2023-07-22T08:33:00;95220.77;;;35.86;33.87
6096;BME280;25081;42.698;23.298;2023-07-22T08:35:10;95215.01;;;36.02;33.89
6096;BME280;25081;42.698;23.298;2023-07-22T08:37:21;95215.98;;;33.97;37.00
6096;BME280;25081;42.698;23.298;2023-07-22T08:39:32;95207.14;;;32.62;39.85
6096;BME280;25081;42.698;23.298;2023-07-22T08:41:49;95201.55;;;33.22;39.23
6096;BME280;25081;42.698;23.298;2023-07-22T08:43:55;95193.01;;;34.68;37.02
6096;BME280;25081;42.698;23.298;2023-07-22T08:46:06;95187.02;;;34.93;36.31
6096;BME280;25081;42.698;23.298;2023-07-22T08:48:16;95191.81;;;35.83;35.33
6096;BME280;25081;42.698;23.298;2023-07-22T08:50:29;95176.34;;;36.54;33.08
6096;BME280;25081;42.698;23.298;2023-07-22T08:52:37;95180.62;;;37.07;31.86
6096;BME280;25081;42.698;23.298;2023-07-22T08:54:48;95177.34;;;36.04;33.20
6096;BME280;25081;42.698;23.298;2023-07-22T08:56:58;95168.33;;;37.92;31.02
6096;BME280;25081;42.698;23.298;2023-07-22T08:59:09;95167.66;;;37.46;31.85
6096;BME280;25081;42.698;23.298;2023-07-22T09:01:19;95171.66;;;36.10;33.11
6096;BME280;25081;42.698;23.298;2023-07-22T09:03:29;95163.63;;;37.33;31.12
6096;BME280;25081;42.698;23.298;2023-07-22T09:05:40;95160.17;;;38.54;29.91
6096;BME280;25081;42.698;23.298;2023-07-22T09:07:51;95167.52;;;37.14;31.11
6096;BME280;25081;42.698;23.298;2023-07-22T09:10:01;95168.63;;;36.95;32.37
6096;BME280;25081;42.698;23.298;2023-07-22T09:12:13;95161.32;;;37.57;31.21
6096;BME280;25081;42.698;23.298;2023-07-22T09:14:24;95156.34;;;37.60;31.33
6096;BME280;25081;42.698;23.298;2023-07-22T09:16:34;95162.72;;;35.87;33.95
6096;BME280;25081;42.698;23.298;2023-07-22T09:18:45;95168.48;;;36.12;33.33
6096;BME280;25081;42.698;23.298;2023-07-22T09:20:55;95163.74;;;36.75;32.47
6096;BME280;25081;42.698;23.298;2023-07-22T09:23:06;95153.23;;;37.86;30.70
6096;BME280;25081;42.698;23.298;2023-07-22T09:25:18;95151.59;;;36.66;32.34
6096;BME280;25081;42.698;23.298;2023-07-22T09:27:34;95159.17;;;35.49;33.69
6096;BME280;25081;42.698;23.298;2023-07-22T09:29:45;95152.63;;;34.67;35.11
6096;BME280;25081;42.698;23.298;2023-07-22T09:31:55;95153.00;;;36.35;31.51
6096;BME280;25081;42.698;23.298;2023-07-22T09:34:10;95150.34;;;36.53;31.54
6096;BME280;25081;42.698;23.298;2023-07-22T09:36:21;95144.87;;;38.36;28.58
6096;BME280;25081;42.698;23.298;2023-07-22T09:38:31;95140.59;;;39.70;26.94
6096;BME280;25081;42.698;23.298;2023-07-22T09:40:42;95140.48;;;39.58;27.09
6096;BME280;25081;42.698;23.298;2023-07-22T09:42:54;95145.45;;;37.93;28.92
6096;BME280;25081;42.698;23.298;2023-07-22T09:45:05;95134.52;;;37.83;29.73
6096;BME280;25081;42.698;23.298;2023-07-22T09:47:16;95131.16;;;39.75;27.19
6096;BME280;25081;42.698;23.298;2023-07-22T09:49:26;95128.50;;;40.36;26.37
6096;BME280;25081;42.698;23.298;2023-07-22T09:51:37;95130.02;;;40.21;26.12
6096;BME280;25081;42.698;23.298;2023-07-22T09:53:51;95121.48;;;40.77;24.63
6096;BME280;25081;42.698;23.298;2023-07-22T09:56:03;95122.52;;;39.59;25.23
6096;BME280;25081;42.698;23.298;2023-07-22T09:58:14;95118.77;;;37.49;28.50
6096;BME280;25081;42.698;23.298;2023-07-22T10:00:27;95120.98;;;38.17;28.34
6096;BME280;25081;42.698;23.298;2023-07-22T10:02:36;95112.69;;;39.33;27.03
6096;BME280;25081;42.698;23.298;2023-07-22T10:04:46;95118.66;;;40.20;25.83
6096;BME280;25081;42.698;23.298;2023-07-22T10:06:57;95114.92;;;40.75;25.17
6096;BME280;25081;42.698;23.298;2023-07-22T10:09:07;95118.28;;;40.18;25.90
6096;BME280;25081;42.698;23.298;2023-07-22T10:11:18;95108.53;;;39.89;26.07
6096;BME280;25081;42.698;23.298;2023-07-22T10:13:28;95112.12;;;40.56;24.38
6096;BME280;25081;42.698;23.298;2023-07-22T10:15:39;95106.95;;;40.32;25.35
6096;BME280;25081;42.698;23.298;2023-07-22T10:17:50;95110.66;;;40.64;25.13
6096;BME280;25081;42.698;23.298;2023-07-22T10:20:00;95104.60;;;40.87;23.22
6096;BME280;25081;42.698;23.298;2023-07-22T10:22:11;95097.30;;;41.12;22.97
6096;BME280;25081;42.698;23.298;2023-07-22T10:24:21;95087.86;;;40.99;22.97
6096;BME280;25081;42.698;23.298;2023-07-22T10:26:32;95095.91;;;39.40;25.57
6096;BME280;25081;42.698;23.298;2023-07-22T10:28:43;95091.72;;;39.37;25.31
6096;BME280;25081;42.698;23.298;2023-07-22T10:30:53;95094.55;;;38.93;26.69
6096;BME280;25081;42.698;23.298;2023-07-22T10:33:04;95094.04;;;38.69;26.13
6096;BME280;25081;42.698;23.298;2023-07-22T10:35:17;95095.14;;;37.92;26.55
6096;BME280;25081;42.698;23.298;2023-07-22T10:37:31;95096.06;;;38.54;26.55
6096;BME280;25081;42.698;23.298;2023-07-22T10:39:42;95087.12;;;38.47;26.41
6096;BME280;25081;42.698;23.298;2023-07-22T10:41:58;95090.66;;;38.58;26.18
6096;BME280;25081;42.698;23.298;2023-07-22T10:44:09;95086.56;;;38.19;25.97
6096;BME280;25081;42.698;23.298;2023-07-22T10:46:19;95084.94;;;38.47;25.77
6096;BME280;25081;42.698;23.298;2023-07-22T10:48:33;95086.88;;;38.68;25.78
6096;BME280;25081;42.698;23.298;2023-07-22T10:50:44;95088.06;;;38.74;26.11
6096;BME280;25081;42.698;23.298;2023-07-22T10:52:54;95084.76;;;39.00;24.86
6096;BME280;25081;42.698;23.298;2023-07-22T10:55:09;95084.92;;;39.05;24.80
6096;BME280;25081;42.698;23.298;2023-07-22T10:57:25;95082.33;;;39.42;24.54
6096;BME280;25081;42.698;23.298;2023-07-22T10:59:36;95079.31;;;39.08;25.07
6096;BME280;25081;42.698;23.298;2023-07-22T11:01:46;95075.13;;;39.19;24.82
6096;BME280;25081;42.698;23.298;2023-07-22T11:04:11;95066.18;;;39.94;24.57
6096;BME280;25081;42.698;23.298;2023-07-22T11:06:21;95076.73;;;39.06;25.32
6096;BME280;25081;42.698;23.298;2023-07-22T11:08:39;95068.80;;;39.37;24.81
6096;BME280;25081;42.698;23.298;2023-07-22T11:10:55;95070.10;;;38.78;25.00
6096;BME280;25081;42.698;23.298;2023-07-22T11:13:05;95065.87;;;38.92;24.64
6096;BME280;25081;42.698;23.298;2023-07-22T11:15:16;95065.02;;;38.48;25.71
6096;BME280;25081;42.698;23.298;2023-07-22T11:17:31;95064.90;;;38.08;25.91
6096;BME280;25081;42.698;23.298;2023-07-22T11:19:41;95060.95;;;37.80;25.85
6096;BME280;25081;42.698;23.298;2023-07-22T11:21:52;95064.59;;;38.57;24.94
6096;BME280;25081;42.698;23.298;2023-07-22T11:24:03;95063.33;;;38.83;24.78
6096;BME280;25081;42.698;23.298;2023-07-22T11:26:14;95057.37;;;38.81;24.80
6096;BME280;25081;42.698;23.298;2023-07-22T11:28:25;95059.98;;;38.65;24.76
6096;BME280;25081;42.698;23.298;2023-07-22T11:30:35;95067.66;;;38.12;25.99
6096;BME280;25081;42.698;23.298;2023-07-22T11:32:46;95065.32;;;37.96;25.73